Time;durP1;ratioP1;P1;durP2;ratioP2;P2;SDS_P1;SDS_P2;PMS_P1;PMS_P2;Temp;Humidity;BMP_temperature;BMP_pressure;BME280_temperature;BME280_humidity;BME280_pressure;Samples;Min_cycle;Max_cycle;Signal;HPM_P1;HPM_P2
2023/07/12 00:01:23;;;;;;;0.47;0.47;;;;;;;21.44;100.00;100534.44;4879535;29;20248;-81
2023/07/12 00:03:50;;;;;;;0.50;0.50;;;;;;;21.37;100.00;100540.03;4884778;29;20232;-81
2023/07/12 00:06:27;;;;;;;1.50;1.00;;;;;;;21.33;100.00;100554.53;4883271;29;20243;-81
2023/07/12 00:08:53;;;;;;;1.00;1.00;;;;;;;21.34;100.00;100561.66;4874405;29;20708;-80
2023/07/12 00:11:22;;;;;;;1.33;0.88;;;;;;;21.37;100.00;100583.09;4884072;29;20259;-81
2023/07/12 00:13:52;;;;;;;0.55;0.55;;;;;;;21.33;100.00;100581.44;4895229;29;20334;-81
2023/07/12 00:16:23;;;;;;;1.27;0.98;;;;;;;21.28;100.00;100582.50;4881978;29;20239;-81
2023/07/12 00:18:51;;;;;;;0.50;0.50;;;;;;;21.29;100.00;100595.03;4888427;29;20249;-81
2023/07/12 00:21:24;;;;;;;0.75;0.75;;;;;;;21.35;100.00;100603.78;4869578;29;20235;-81
2023/07/12 00:23:55;;;;;;;0.30;0.30;;;;;;;21.30;100.00;100596.78;4886048;29;20263;-81
2023/07/12 00:26:27;;;;;;;0.85;0.85;;;;;;;21.27;100.00;100603.16;4870091;29;20243;-81
2023/07/12 00:28:55;;;;;;;0.50;0.50;;;;;;;21.28;100.00;100598.66;4880173;29;20250;-81
2023/07/12 00:31:22;;;;;;;0.65;0.65;;;;;;;21.30;100.00;100600.34;4885815;29;20251;-81
2023/07/12 00:33:49;;;;;;;0.30;0.30;;;;;;;21.27;100.00;100594.19;4893758;29;20239;-81
2023/07/12 00:36:21;;;;;;;1.05;0.82;;;;;;;21.21;100.00;100595.25;4893358;29;20236;-81
2023/07/12 00:38:49;;;;;;;0.90;0.90;;;;;;;21.18;100.00;100589.97;4874441;29;20689;-81
2023/07/12 00:41:37;;;;;;;1.65;0.93;;;;;;;21.19;100.00;100599.78;4881050;29;20248;-81
2023/07/12 00:44:07;;;;;;;0.52;0.47;;;;;;;21.19;100.00;100601.59;4882973;29;20243;-80
2023/07/12 00:46:48;;;;;;;0.50;0.50;;;;;;;21.16;100.00;100589.13;4883983;29;20355;-81
2023/07/12 00:49:15;;;;;;;1.05;0.65;;;;;;;21.14;100.00;100598.19;4865312;29;20239;-81
2023/07/12 00:51:55;;;;;;;0.98;0.98;;;;;;;21.07;100.00;100606.44;4869235;29;20232;-81
2023/07/12 00:54:25;;;;;;;0.40;0.40;;;;;;;21.01;100.00;100606.63;4864891;29;20251;-81
2023/07/12 00:56:52;;;;;;;0.50;0.50;;;;;;;21.04;100.00;100611.91;4880943;29;20252;-81
2023/07/12 00:59:24;;;;;;;1.20;0.77;;;;;;;21.03;100.00;100618.22;4878583;29;20705;-81
2023/07/12 01:01:54;;;;;;;0.38;0.38;;;;;;;21.02;100.00;100620.97;4873128;29;20305;-79
2023/07/12 01:04:27;;;;;;;0.75;0.75;;;;;;;20.98;100.00;100621.97;4862663;29;20328;-79
2023/07/12 01:06:54;;;;;;;0.40;0.40;;;;;;;20.89;100.00;100607.00;4869474;29;20247;-80
2023/07/12 01:09:21;;;;;;;0.45;0.45;;;;;;;20.86;100.00;100609.78;4864176;29;20243;-79
2023/07/12 01:11:48;;;;;;;0.40;0.40;;;;;;;20.86;100.00;100607.09;4869947;29;20234;-80
2023/07/12 01:14:17;;;;;;;0.77;0.77;;;;;;;20.77;100.00;100599.28;4862068;29;20239;-79
2023/07/12 01:16:47;;;;;;;0.43;0.43;;;;;;;20.82;100.00;100615.31;4885060;29;20236;-79
2023/07/12 01:19:14;;;;;;;0.60;0.60;;;;;;;20.86;100.00;100614.28;4862696;29;20228;-79
2023/07/12 01:21:44;;;;;;;0.35;0.35;;;;;;;20.86;100.00;100627.72;4888058;29;20279;-79
2023/07/12 01:24:11;;;;;;;0.50;0.50;;;;;;;20.83;100.00;100617.94;4878728;29;20258;-80
2023/07/12 01:26:41;;;;;;;0.40;0.40;;;;;;;20.77;100.00;100610.03;4883724;29;20239;-80
2023/07/12 01:29:08;;;;;;;0.68;0.68;;;;;;;20.78;100.00;100604.63;4882839;29;20248;-79
2023/07/12 01:31:36;;;;;;;0.30;0.30;;;;;;;20.75;100.00;100596.66;4875685;29;20224;-80
2023/07/12 01:34:04;;;;;;;1.02;0.82;;;;;;;20.75;100.00;100602.03;4887258;29;20231;-80
2023/07/12 01:36:31;;;;;;;1.70;0.95;;;;;;;20.72;100.00;100599.44;4888310;29;20251;-79
2023/07/12 01:38:59;;;;;;;0.40;0.40;;;;;;;20.69;100.00;100599.50;4892916;29;20239;-78
2023/07/12 01:41:26;;;;;;;0.30;0.30;;;;;;;20.66;100.00;100588.84;4884561;29;20246;-78
2023/07/12 01:43:53;;;;;;;0.30;0.30;;;;;;;20.62;100.00;100589.00;4885775;29;20235;-78
2023/07/12 01:46:21;;;;;;;0.40;0.40;;;;;;;20.58;100.00;100576.56;4865463;29;20244;-78
2023/07/12 01:48:48;;;;;;;0.28;0.28;;;;;;;20.61;100.00;100581.84;4885437;29;20244;-78
2023/07/12 01:51:15;;;;;;;0.75;0.68;;;;;;;20.58;100.00;100577.47;4881854;29;20235;-78
2023/07/12 01:53:42;;;;;;;0.20;0.20;;;;;;;20.58;100.00;100576.56;4865887;29;20256;-78
2023/07/12 01:56:09;;;;;;;10.25;0.95;;;;;;;20.56;100.00;100575.75;4867908;29;20247;-77
2023/07/12 01:58:36;;;;;;;1.30;0.57;;;;;;;20.56;100.00;100579.31;4877020;29;20246;-78
2023/07/12 02:01:03;;;;;;;0.30;0.30;;;;;;;20.53;100.00;100575.84;4881849;29;20240;-77
2023/07/12 02:03:29;;;;;;;0.20;0.20;;;;;;;20.51;100.00;100577.69;4870812;29;20315;-78
2023/07/12 02:05:57;;;;;;;0.20;0.20;;;;;;;20.44;100.00;100585.03;4864867;29;20283;-78
2023/07/12 02:08:24;;;;;;;0.30;0.30;;;;;;;20.50;100.00;100582.19;4885001;29;20247;-78
2023/07/12 02:10:51;;;;;;;0.20;0.20;;;;;;;20.49;100.00;100593.84;4889393;29;20235;-79
2023/07/12 02:13:19;;;;;;;0.73;0.52;;;;;;;20.52;100.00;100588.38;4871232;29;20315;-77
2023/07/12 02:15:46;;;;;;;0.28;0.28;;;;;;;20.45;100.00;100585.00;4897088;29;20697;-79
2023/07/12 02:18:12;;;;;;;0.75;0.73;;;;;;;20.44;100.00;100593.09;4885928;29;20255;-78
2023/07/12 02:20:40;;;;;;;1.20;0.93;;;;;;;20.51;100.00;100581.25;4890029;29;20247;-78
2023/07/12 02:23:07;;;;;;;0.45;0.35;;;;;;;20.51;100.00;100586.63;4881847;29;20235;-78
2023/07/12 02:25:34;;;;;;;0.30;0.30;;;;;;;20.45;100.00;100579.63;4875814;29;20227;-78
2023/07/12 02:28:01;;;;;;;0.20;0.20;;;;;;;20.50;100.00;100592.03;4873329;29;20230;-78
2023/07/12 02:30:28;;;;;;;0.30;0.30;;;;;;;20.48;100.00;100583.16;4888177;29;20244;-78
2023/07/12 02:32:56;;;;;;;0.30;0.30;;;;;;;20.40;100.00;100567.25;4885486;29;20252;-78
2023/07/12 02:35:31;;;;;;;0.20;0.20;;;;;;;20.42;100.00;100578.84;4891669;29;20719;-77
2023/07/12 02:37:59;;;;;;;0.20;0.20;;;;;;;20.40;100.00;100586.06;4886885;29;20295;-78
2023/07/12 02:40:27;;;;;;;0.20;0.20;;;;;;;20.36;100.00;100584.34;4884733;29;20235;-78
2023/07/12 02:42:54;;;;;;;0.10;0.10;;;;;;;20.42;100.00;100574.34;4897186;29;20239;-80
2023/07/12 02:45:21;;;;;;;2.30;1.00;;;;;;;20.35;100.00;100587.97;4893113;29;20245;-80
2023/07/12 02:47:47;;;;;;;0.30;0.30;;;;;;;20.33;100.00;100581.75;4897694;29;20232;-81
2023/07/12 02:50:14;;;;;;;1.27;0.82;;;;;;;20.29;100.00;100580.09;4884857;29;20252;-81
2023/07/12 02:52:42;;;;;;;0.30;0.30;;;;;;;20.29;100.00;100575.59;4873115;29;20232;-81
2023/07/12 02:55:09;;;;;;;0.82;0.63;;;;;;;20.25;100.00;100576.59;4892353;29;20235;-81
2023/07/12 02:57:36;;;;;;;0.20;0.20;;;;;;;20.26;100.00;100569.44;4894530;29;20250;-81
2023/07/12 03:00:03;;;;;;;0.35;0.35;;;;;;;20.24;100.00;100572.16;4880382;29;20242;-81
2023/07/12 03:02:30;;;;;;;0.20;0.20;;;;;;;20.21;100.00;100571.38;4892246;29;20244;-82
2023/07/12 03:04:57;;;;;;;1.75;1.02;;;;;;;20.22;100.00;100571.31;4890188;29;20231;-82
2023/07/12 03:07:24;;;;;;;0.20;0.20;;;;;;;20.19;100.00;100589.31;4888111;29;20251;-82
2023/07/12 03:09:56;;;;;;;0.30;0.30;;;;;;;20.19;100.00;100583.94;4895421;29;20235;-82
2023/07/12 03:12:23;;;;;;;0.38;0.38;;;;;;;20.24;100.00;100596.31;4885973;29;20244;-81
2023/07/12 03:14:51;;;;;;;0.70;0.70;;;;;;;20.21;100.00;100585.66;4885072;29;20231;-82
2023/07/12 03:17:18;;;;;;;3.03;1.48;;;;;;;20.17;100.00;100584.00;4886943;29;20239;-82
2023/07/12 03:19:44;;;;;;;0.20;0.20;;;;;;;20.17;100.00;100593.84;4889847;29;20290;-81
2023/07/12 03:22:11;;;;;;;6.65;3.92;;;;;;;20.19;100.00;100594.69;4885924;29;20241;-82
2023/07/12 03:24:38;;;;;;;0.40;0.40;;;;;;;20.15;100.00;100593.91;4886279;29;20376;-81
2023/07/12 03:27:05;;;;;;;6.57;3.58;;;;;;;20.06;100.00;100578.91;4886865;29;20322;-82
2023/07/12 03:29:32;;;;;;;0.35;0.35;;;;;;;20.09;100.00;100586.88;4893051;29;20247;-81
2023/07/12 03:31:59;;;;;;;0.15;0.15;;;;;;;20.08;100.00;100586.94;4892857;29;20228;-82
2023/07/12 03:34:25;;;;;;;0.20;0.20;;;;;;;20.05;100.00;100582.53;4890016;29;20245;-82
2023/07/12 03:36:52;;;;;;;0.38;0.25;;;;;;;20.08;100.00;100579.75;4894475;29;20303;-82
2023/07/12 03:39:19;;;;;;;5.05;1.67;;;;;;;20.05;100.00;100582.53;4885005;29;20236;-83
2023/07/12 03:41:46;;;;;;;1.45;1.35;;;;;;;20.09;100.00;100580.63;4892872;29;20236;-82
2023/07/12 03:44:12;;;;;;;9.63;3.92;;;;;;;20.04;100.00;100578.09;4886102;29;20227;-81
2023/07/12 03:46:39;;;;;;;0.47;0.47;;;;;;;20.05;100.00;100581.66;4889150;29;20239;-80
2023/07/12 03:49:06;;;;;;;8.38;4.97;;;;;;;19.97;100.00;100573.81;4886859;29;20290;-82
2023/07/12 03:51:33;;;;;;;0.38;0.38;;;;;;;19.93;100.00;100582.88;4881265;29;20312;-81
2023/07/12 03:53:59;;;;;;;0.10;0.10;;;;;;;19.95;100.00;100601.63;4876491;29;20227;-80
2023/07/12 03:56:26;;;;;;;0.30;0.30;;;;;;;20.00;100.00;100613.09;4880531;29;20248;-82
2023/07/12 03:58:53;;;;;;;0.30;0.30;;;;;;;19.94;100.00;100611.47;4887924;29;20242;-80
2023/07/12 04:01:20;;;;;;;3.10;1.02;;;;;;;19.97;100.00;100626.63;4878259;29;20271;-82
2023/07/12 04:03:47;;;;;;;0.45;0.45;;;;;;;19.96;100.00;100632.91;4869965;29;20272;-82
2023/07/12 04:06:14;;;;;;;6.43;3.45;;;;;;;19.96;100.00;100644.53;4878199;29;20299;-82
2023/07/12 04:08:40;;;;;;;0.20;0.20;;;;;;;20.04;100.00;100653.25;4872362;29;20243;-81
2023/07/12 04:11:22;;;;;;;5.57;2.80;;;;;;;20.09;100.00;100666.56;4883489;29;20224;-81
2023/07/12 04:13:49;;;;;;;0.30;0.30;;;;;;;20.14;100.00;100660.13;4887762;29;20242;-81
2023/07/12 04:16:16;;;;;;;3.70;1.85;;;;;;;20.13;100.00;100657.50;4886856;29;20334;-81
2023/07/12 04:18:43;;;;;;;0.20;0.20;;;;;;;20.06;100.00;100659.47;4880866;29;20235;-81
2023/07/12 04:21:10;;;;;;;8.07;4.72;;;;;;;20.04;100.00;100655.06;4885977;29;20303;-82
2023/07/12 04:23:37;;;;;;;3.60;0.50;;;;;;;20.04;100.00;100663.13;4888359;29;20251;-81
2023/07/12 04:26:05;;;;;;;3.20;2.13;;;;;;;20.10;100.00;100677.25;4883335;29;20229;-81
2023/07/12 04:28:38;;;;;;;0.10;0.10;;;;;;;20.12;100.00;100688.84;4889323;29;20263;-82
2023/07/12 04:31:10;;;;;;;6.97;4.57;;;;;;;20.12;100.00;100683.47;4888957;29;20240;-81
2023/07/12 04:33:38;;;;;;;0.30;0.30;;;;;;;20.18;100.00;100684.22;4892553;29;20224;-83
2023/07/12 04:36:09;;;;;;;5.80;3.95;;;;;;;20.14;100.00;100676.25;4887081;29;20237;-83
2023/07/12 04:38:37;;;;;;;0.25;0.25;;;;;;;20.19;100.00;100686.00;4891901;29;20239;-80
2023/07/12 04:41:04;;;;;;;1.55;0.93;;;;;;;20.23;100.00;100693.03;4887978;29;20252;-78
2023/07/12 04:43:31;;;;;;;0.90;0.90;;;;;;;20.29;100.00;100695.56;4877977;29;20235;-79
2023/07/12 04:45:59;;;;;;;0.22;0.22;;;;;;;20.35;100.00;100724.94;4894144;29;20228;-79
2023/07/12 04:48:26;;;;;;;0.22;0.22;;;;;;;20.47;100.00;100729.16;4889211;29;20325;-77
2023/07/12 04:50:54;;;;;;;0.40;0.40;;;;;;;20.63;100.00;100730.50;4894185;29;20240;-78
2023/07/12 04:53:22;;;;;;;6.30;1.98;;;;;;;20.77;100.00;100742.63;4884755;29;20263;-78
2023/07/12 04:55:52;;;;;;;0.20;0.20;;;;;;;20.85;100.00;100731.69;4890650;29;20242;-78
2023/07/12 04:58:19;;;;;;;3.67;1.40;;;;;;;21.01;100.00;100727.63;4871742;29;20246;-79
2023/07/12 05:00:47;;;;;;;0.30;0.30;;;;;;;20.99;100.00;100707.09;4890947;29;20273;-79
2023/07/12 05:03:15;;;;;;;3.97;2.85;;;;;;;21.08;100.00;100705.00;4879806;29;20228;-78
2023/07/12 05:05:43;;;;;;;0.10;0.10;;;;;;;21.16;100.00;100696.72;4887716;29;20250;-78
2023/07/12 05:08:10;;;;;;;2.28;1.38;;;;;;;21.32;100.00;100687.28;4884945;29;20309;-78
2023/07/12 05:10:37;;;;;;;0.17;0.17;;;;;;;21.39;100.00;100679.88;4874941;29;20244;-80
2023/07/12 05:13:04;;;;;;;2.50;1.70;;;;;;;21.46;100.00;100669.81;4882675;29;20655;-79
2023/07/12 05:15:31;;;;;;;0.30;0.30;;;;;;;21.59;100.00;100652.34;4886296;29;20240;-79
2023/07/12 05:17:58;;;;;;;0.10;0.10;;;;;;;21.64;100.00;100632.41;4886261;29;20719;-79
2023/07/12 05:20:25;;;;;;;0.38;0.38;;;;;;;21.69;100.00;100600.84;4880759;29;20246;-80
2023/07/12 05:22:52;;;;;;;0.20;0.20;;;;;;;21.73;100.00;100588.16;4883358;29;20242;-78
2023/07/12 05:25:18;;;;;;;4.78;2.55;;;;;;;21.70;100.00;100580.19;4882463;29;20688;-78
2023/07/12 05:27:45;;;;;;;0.35;0.35;;;;;;;21.73;100.00;100577.41;4887106;29;20231;-78
2023/07/12 05:30:12;;;;;;;6.22;4.28;;;;;;;21.73;100.00;100569.31;4882477;29;20655;-78
2023/07/12 05:32:40;;;;;;;0.75;0.47;;;;;;;21.64;100.00;100562.44;4891886;29;20242;-78
2023/07/12 05:35:08;;;;;;;0.57;0.50;;;;;;;21.68;100.00;100556.03;4868582;29;20338;-78
2023/07/12 05:37:35;;;;;;;0.15;0.15;;;;;;;21.70;100.00;100559.53;4881765;29;20239;-78
2023/07/12 05:40:03;;;;;;;0.20;0.20;;;;;;;21.78;100.00;100547.63;4882199;29;20234;-78
2023/07/12 05:42:31;;;;;;;0.20;0.20;;;;;;;21.89;100.00;100534.66;4884963;29;20318;-78
2023/07/12 05:44:57;;;;;;;0.10;0.10;;;;;;;21.85;100.00;100506.97;4887111;29;20247;-78
2023/07/12 05:47:24;;;;;;;0.20;0.20;;;;;;;21.88;100.00;100506.84;4876773;29;20312;-78
2023/07/12 05:49:51;;;;;;;0.10;0.10;;;;;;;21.94;100.00;100495.84;4878857;29;20266;-79
2023/07/12 05:52:17;;;;;;;1.65;0.85;;;;;;;21.88;100.00;100487.13;4879385;29;20696;-82
2023/07/12 05:54:44;;;;;;;0.50;0.50;;;;;;;21.89;100.00;100470.91;4889597;29;20235;-82
2023/07/12 05:57:11;;;;;;;4.13;2.20;;;;;;;21.91;100.00;100458.28;4857350;29;20255;-81
2023/07/12 05:59:38;;;;;;;0.25;0.25;;;;;;;21.91;100.00;100442.13;4883153;29;20235;-80
2023/07/12 06:02:08;;;;;;;3.55;2.13;;;;;;;21.99;100.00;100450.78;4879936;29;20245;-80
2023/07/12 06:04:35;;;;;;;0.30;0.30;;;;;;;22.18;100.00;100451.03;4873267;29;20231;-80
2023/07/12 06:07:01;;;;;;;0.25;0.25;;;;;;;22.24;100.00;100444.53;4887478;29;20239;-80
2023/07/12 06:09:28;;;;;;;0.17;0.17;;;;;;;22.41;100.00;100436.66;4887369;29;20239;-80
2023/07/12 06:11:55;;;;;;;0.10;0.10;;;;;;;22.47;100.00;100419.38;4890164;29;20613;-81
2023/07/12 06:14:22;;;;;;;0.10;0.10;;;;;;;22.46;100.00;100410.41;4878820;29;20253;-80
2023/07/12 06:16:48;;;;;;;0.22;0.22;;;;;;;22.51;100.00;100403.03;4884219;29;20239;-81
2023/07/12 06:19:15;;;;;;;0.80;0.57;;;;;;;22.58;100.00;100391.03;4878386;29;20315;-80
2023/07/12 06:21:42;;;;;;;0.63;0.63;;;;;;;22.78;100.00;100386.66;4885976;29;20699;-80
2023/07/12 06:24:09;;;;;;;0.30;0.30;;;;;;;22.86;100.00;100376.44;4876799;29;20230;-80
2023/07/12 06:26:35;;;;;;;0.30;0.30;;;;;;;22.93;100.00;100369.84;4889394;29;20254;-82
2023/07/12 06:29:02;;;;;;;0.20;0.10;;;;;;;23.06;100.00;100356.72;4879846;29;20231;-78
2023/07/12 06:31:29;;;;;;;0.45;0.43;;;;;;;23.14;100.00;100350.03;4889841;29;20278;-81
2023/07/12 06:33:59;;;;;;;0.20;0.20;;;;;;;23.26;100.00;100338.69;4882445;29;20292;-81
2023/07/12 06:36:26;;;;;;;0.13;0.13;;;;;;;23.29;100.00;100327.78;4883026;29;20257;-81
2023/07/12 06:38:53;;;;;;;0.43;0.43;;;;;;;23.31;100.00;100307.00;4890576;29;20278;-82
2023/07/12 06:41:20;;;;;;;3.72;1.85;;;;;;;23.41;100.00;100312.00;4882866;29;20250;-82
2023/07/12 06:43:47;;;;;;;0.10;0.10;;;;;;;23.49;100.00;100307.13;4874983;29;20254;-81
2023/07/12 06:46:14;;;;;;;2.55;1.17;;;;;;;23.43;100.00;100291.22;4880033;29;20231;-82
2023/07/12 06:48:41;;;;;;;0.10;0.10;;;;;;;23.52;100.00;100286.28;4887407;29;20287;-82
2023/07/12 06:51:07;;;;;;;2.03;1.15;;;;;;;23.69;100.00;100271.13;4866706;29;20243;-79
2023/07/12 06:53:35;;;;;;;0.38;0.38;;;;;;;23.81;100.00;100263.31;4887158;29;20251;-80
2023/07/12 06:56:02;;;;;;;0.10;0.10;;;;;;;23.97;100.00;100265.28;4881269;29;20238;-78
2023/07/12 06:58:28;;;;;;;0.20;0.20;;;;;;;24.18;100.00;100256.13;4882865;29;20318;-80
2023/07/12 07:00:55;;;;;;;0.30;0.30;;;;;;;24.28;100.00;100240.34;4891407;29;20605;-80
2023/07/12 07:03:22;;;;;;;0.10;0.10;;;;;;;24.36;100.00;100230.91;4888098;29;20243;-82
2023/07/12 07:05:49;;;;;;;0.10;0.10;;;;;;;24.37;100.00;100224.53;4893232;29;20249;-82
2023/07/12 07:08:18;;;;;;;5.47;3.13;;;;;;;24.45;100.00;100206.09;4890169;29;20273;-81
2023/07/12 07:10:49;;;;;;;0.15;0.15;;;;;;;24.54;100.00;100200.22;4893307;29;20243;-82
2023/07/12 07:13:16;;;;;;;5.72;3.38;;;;;;;24.74;100.00;100195.63;4892171;29;20227;-79
2023/07/12 07:15:46;;;;;;;0.00;0.00;;;;;;;24.56;100.00;100171.25;4875791;29;20231;-82
2023/07/12 07:18:13;;;;;;;4.28;2.72;;;;;;;24.31;100.00;100138.38;4886803;29;20311;-81
2023/07/12 07:20:41;;;;;;;0.10;0.10;;;;;;;24.54;100.00;100156.97;4888344;29;20238;-80
2023/07/12 07:23:08;;;;;;;0.90;0.63;;;;;;;24.27;100.00;100123.28;4887668;29;20303;-79
2023/07/12 07:25:35;;;;;;;0.20;0.20;;;;;;;24.62;100.00;100134.91;4885933;29;20696;-76
2023/07/12 07:28:02;;;;;;;0.50;0.45;;;;;;;24.57;100.00;100101.84;4890708;29;20238;-78
2023/07/12 07:30:29;;;;;;;0.95;0.75;;;;;;;24.86;100.00;100122.81;4888479;29;20239;-80
2023/07/12 07:32:57;;;;;;;0.10;0.10;;;;;;;24.76;100.00;100088.22;4850571;29;20228;-79
2023/07/12 07:35:25;;;;;;;0.30;0.30;;;;;;;24.88;100.00;100091.13;4888223;29;20243;-82
2023/07/12 07:37:52;;;;;;;0.10;0.10;;;;;;;24.91;100.00;100071.16;4891921;29;20609;-81
2023/07/12 07:40:18;;;;;;;0.50;0.50;;;;;;;25.32;100.00;100078.78;4876403;29;20227;-80
2023/07/12 07:42:45;;;;;;;0.10;0.10;;;;;;;25.28;100.00;100056.44;4861500;29;20243;-81
2023/07/12 07:45:12;;;;;;;0.28;0.28;;;;;;;24.88;100.00;100012.69;4894470;29;20231;-80
2023/07/12 07:47:39;;;;;;;0.10;0.10;;;;;;;25.15;100.00;100009.41;4876501;29;20306;-81
2023/07/12 07:50:06;;;;;;;0.30;0.30;;;;;;;25.27;100.00;100013.22;4881294;29;20322;-80
2023/07/12 07:52:33;;;;;;;0.13;0.13;;;;;;;25.48;100.00;100010.13;4882317;29;20267;-79
2023/07/12 07:55:01;;;;;;;0.10;0.10;;;;;;;25.46;100.00;100001.22;4862886;29;20231;-76
2023/07/12 07:57:28;;;;;;;1.00;1.00;;;;;;;25.52;100.00;100000.88;4853310;29;20294;-80
2023/07/12 07:59:55;;;;;;;0.00;0.00;;;;;;;25.49;100.00;99989.34;4886256;29;20230;-80
2023/07/12 08:02:22;;;;;;;0.30;0.30;;;;;;;25.39;100.00;99958.38;4883951;29;20258;-78
2023/07/12 08:04:50;;;;;;;0.10;0.10;;;;;;;25.15;100.00;99937.22;4884842;29;20265;-79
2023/07/12 08:07:16;;;;;;;0.20;0.20;;;;;;;25.29;100.00;99947.22;4879681;29;20290;-80
2023/07/12 08:09:43;;;;;;;0.17;0.17;;;;;;;25.23;100.00;99904.28;4896671;29;20242;-79
2023/07/12 08:12:10;;;;;;;0.70;0.57;;;;;;;25.11;100.00;99892.38;4887013;29;20261;-79
2023/07/12 08:14:37;;;;;;;0.20;0.20;;;;;;;25.48;100.00;99917.22;4889800;29;20235;-80
2023/07/12 08:17:04;;;;;;;0.52;0.52;;;;;;;25.53;100.00;99893.44;4884305;29;20250;-81
2023/07/12 08:19:30;;;;;;;0.20;0.20;;;;;;;25.51;100.00;99868.28;4899389;29;20260;-79
2023/07/12 08:21:57;;;;;;;0.38;0.38;;;;;;;25.50;100.00;99885.50;4891767;29;20250;-79
2023/07/12 08:24:24;;;;;;;0.10;0.10;;;;;;;25.96;100.00;99890.81;4885202;29;20246;-80
2023/07/12 08:26:51;;;;;;;0.40;0.30;;;;;;;25.88;100.00;99847.06;4872394;29;20246;-80
2023/07/12 08:29:33;;;;;;;0.10;0.10;;;;;;;26.36;100.00;99862.94;4879820;29;20241;-77
2023/07/12 08:32:00;;;;;;;0.20;0.20;;;;;;;26.18;100.00;99818.03;4892095;29;20227;-80
2023/07/12 08:34:28;;;;;;;0.20;0.20;;;;;;;26.20;100.00;99820.66;4888489;29;20254;-80
2023/07/12 08:36:55;;;;;;;0.32;0.22;;;;;;;26.29;100.00;99818.22;4897671;29;20231;-79
2023/07/12 08:39:22;;;;;;;0.52;0.40;;;;;;;26.57;100.00;99828.13;4881848;29;20241;-79
2023/07/12 08:41:51;;;;;;;0.13;0.13;;;;;;;26.60;100.00;99803.53;4870098;29;20235;-79
2023/07/12 08:44:18;;;;;;;1.85;0.85;;;;;;;26.22;100.00;99748.25;4867964;29;20241;-79
2023/07/12 08:46:50;;;;;;;0.10;0.10;;;;;;;25.90;100.00;99726.81;4885030;29;20231;-78
2023/07/12 08:49:17;;;;;;;0.50;0.50;;;;;;;26.31;100.00;99777.44;4867624;29;20719;-81
2023/07/12 08:51:45;;;;;;;0.40;0.40;;;;;;;26.86;100.00;99784.59;4872379;29;20338;-80
2023/07/12 08:54:27;;;;;;;1.20;0.90;;;;;;;27.09;100.00;99768.50;4867521;29;20306;-81
2023/07/12 08:57:18;;;;;;;0.20;0.20;;;;;;;27.27;100.00;99735.63;4891348;29;20237;-79
2023/07/12 09:00:05;;;;;;;0.77;0.77;;;;;;;26.80;100.00;99652.97;4875613;29;20318;-81
2023/07/12 09:02:33;;;;;;;0.30;0.30;;;;;;;26.54;100.00;99651.22;4868178;29;20235;-80
2023/07/12 09:05:11;;;;;;;0.40;0.40;;;;;;;27.03;100.00;99675.78;4890862;29;20285;-80
2023/07/12 09:07:38;;;;;;;0.30;0.30;;;;;;;27.42;100.00;99701.97;4883190;29;20231;-79
2023/07/12 09:10:05;;;;;;;1.10;0.88;;;;;;;27.39;100.00;99673.19;4878467;29;20231;-80
2023/07/12 09:12:34;;;;;;;0.50;0.50;;;;;;;27.55;100.00;99656.66;4889563;29;20314;-79
2023/07/12 09:15:05;;;;;;;0.55;0.55;;;;;;;27.49;100.00;99602.78;4867720;29;20245;-79
2023/07/12 09:17:42;;;;;;;0.30;0.30;;;;;;;27.38;100.00;99597.28;4889121;29;20246;-80
2023/07/12 09:20:27;;;;;;;1.30;1.00;;;;;;;27.44;100.00;99564.25;4885724;29;20313;-80
2023/07/12 09:22:54;;;;;;;0.28;0.28;;;;;;;27.47;100.00;99580.31;4888480;29;20299;-80
2023/07/12 09:25:23;;;;;;;2.45;1.25;;;;;;;27.20;100.00;99530.72;4885052;29;20246;-80
2023/07/12 09:27:51;;;;;;;0.50;0.50;;;;;;;26.97;100.00;99516.09;4883485;29;20243;-79
2023/07/12 09:30:22;;;;;;;3.83;1.45;;;;;;;27.05;100.00;99501.03;4879767;29;20253;-80
2023/07/12 09:32:49;;;;;;;0.50;0.50;;;;;;;27.11;100.00;99516.00;4892490;29;20250;-78
2023/07/12 09:35:26;;;;;;;2.85;1.30;;;;;;;28.09;100.00;99580.16;4868262;29;20287;-81
2023/07/12 09:38:00;;;;;;;0.25;0.25;;;;;;;28.14;100.00;99529.00;4869935;29;20250;-80
2023/07/12 09:40:37;;;;;;;0.30;0.30;;;;;;;28.38;100.00;99509.94;4875956;29;20681;-80
2023/07/12 09:43:27;;;;;;;2.58;1.95;;;;;;;28.38;100.00;99471.00;4861844;29;20231;-77
2023/07/12 09:46:23;;;;;;;0.40;0.40;;;;;;;28.09;100.00;99408.03;4882540;29;20250;-82
2023/07/12 09:49:04;;;;;;;0.20;0.20;;;;;;;27.76;100.00;99360.81;4879326;29;20242;-83
2023/07/12 09:51:50;;;;;;;0.20;0.20;;;;;;;28.11;100.00;99389.75;4848785;29;20238;-82
2023/07/12 09:54:42;;;;;;;11.80;6.65;;;;;;;28.17;100.00;99348.50;4879950;29;20291;-80
2023/07/12 09:57:25;;;;;;;19.33;10.75;;;;;;;28.43;100.00;99341.84;4881968;29;20496;-82
2023/07/12 09:59:58;;;;;;;1.08;0.73;;;;;;;28.67;100.00;99309.06;4863492;29;20257;-83
2023/07/12 10:02:45;;;;;;;0.40;0.40;;;;;;;28.83;100.00;99300.47;4873065;29;20306;-80
2023/07/12 10:05:17;;;;;;;3.38;1.65;;;;;;;28.79;100.00;99279.94;4868178;29;20235;-81
2023/07/12 10:07:53;;;;;;;0.30;0.30;;;;;;;28.62;100.00;99227.84;4881864;29;20235;-80
2023/07/12 10:10:36;;;;;;;4.80;2.00;;;;;;;28.78;100.00;99231.97;4864934;29;20246;-81
2023/07/12 10:13:30;;;;;;;1.40;0.82;;;;;;;29.38;100.00;99314.84;4879358;29;20226;-81
2023/07/12 10:15:58;;;;;;;0.50;0.50;;;;;;;29.40;100.00;99301.94;4880760;29;20235;-81
2023/07/12 10:18:29;;;;;;;0.77;0.70;;;;;;;29.08;100.00;99270.19;4851291;29;20235;-80
2023/07/12 10:20:56;;;;;;;0.43;0.43;;;;;;;28.03;100.00;99130.34;4857653;29;20230;-81
2023/07/12 10:23:28;;;;;;;0.40;0.40;;;;;;;28.41;100.00;99185.22;4873772;29;20332;-82
2023/07/12 10:25:59;;;;;;;0.38;0.38;;;;;;;29.21;100.00;99268.16;4863306;29;20231;-82
2023/07/12 10:28:42;;;;;;;0.40;0.40;;;;;;;29.82;100.00;99251.03;4844189;29;20248;-81
2023/07/12 10:31:17;;;;;;;9.63;3.60;;;;;;;29.52;100.00;99146.50;4873228;29;20772;-82
2023/07/12 10:33:46;;;;;;;0.43;0.43;;;;;;;28.92;100.00;99090.19;4884185;29;20252;-82
2023/07/12 10:36:18;;;;;;;16.40;6.82;;;;;;;28.62;100.00;99061.91;4856775;29;20306;-84
2023/07/12 10:38:47;;;;;;;0.75;0.75;;;;;;;28.82;100.00;99065.59;4866309;29;20230;-82
2023/07/12 10:41:23;;;;;;;11.95;5.75;;;;;;;28.57;100.00;99068.72;4868882;29;20234;-81
2023/07/12 10:43:56;;;;;;;0.20;0.20;;;;;;;28.46;100.00;99052.47;4889690;29;20239;-83
2023/07/12 10:46:32;;;;;;;0.40;0.40;;;;;;;28.29;100.00;99010.41;4861213;29;20235;-83
2023/07/12 10:49:04;;;;;;;1.65;0.93;;;;;;;28.83;100.00;99021.09;4854571;29;20246;-81
2023/07/12 10:51:35;;;;;;;0.50;0.50;;;;;;;28.66;100.00;99022.56;4877484;29;20246;-82
2023/07/12 10:54:03;;;;;;;0.47;0.30;;;;;;;28.78;100.00;98981.66;4876072;29;20250;-80
2023/07/12 10:56:53;;;;;;;0.50;0.50;;;;;;;28.63;100.00;98954.84;4864284;29;20246;-82
2023/07/12 10:59:32;;;;;;;4.80;1.95;;;;;;;28.33;100.00;98900.41;4856968;29;20254;-81
2023/07/12 11:02:05;;;;;;;0.50;0.50;;;;;;;28.36;100.00;98924.59;4884791;29;20235;-79
2023/07/12 11:04:45;;;;;;;0.30;0.30;;;;;;;28.69;100.00;98909.91;4879819;29;20256;-81
2023/07/12 11:10:15;;;;;;;0.30;0.30;;;;;;;28.82;92.14;98809.84;5505841;23;20249;-79
2023/07/12 11:12:49;;;;;;;0.15;0.15;;;;;;;28.89;88.74;98772.09;4877027;29;20248;-79
2023/07/12 11:15:26;;;;;;;0.80;0.43;;;;;;;28.84;85.34;98728.97;4927192;28;20229;-80
2023/07/12 11:18:00;;;;;;;0.10;0.10;;;;;;;28.89;84.99;98714.94;4927810;29;20245;-80
2023/07/12 11:20:30;;;;;;;0.43;0.43;;;;;;;28.81;89.15;98731.09;4937953;28;20240;-80
2023/07/12 11:23:28;;;;;;;0.08;0.08;;;;;;;28.97;90.67;98745.88;4925475;29;20317;-80
2023/07/12 11:25:58;;;;;;;0.10;0.10;;;;;;;29.18;86.72;98734.84;4905543;29;20255;-79
2023/07/12 11:28:40;;;;;;;0.15;0.15;;;;;;;29.37;83.56;98701.25;4905312;29;20241;-78
2023/07/12 11:31:13;;;;;;;0.43;0.38;;;;;;;29.59;87.05;98766.31;4917874;29;20252;-79
2023/07/12 11:33:44;;;;;;;0.30;0.30;;;;;;;29.22;87.00;98710.91;4925362;29;20229;-81